createdAt,value
2018-03-14T00:00:52.067Z,6.35
2018-03-14T00:01:51.984Z,6.36
2018-03-14T00:02:51.899Z,6.36
2018-03-14T00:03:51.820Z,6.39
2018-03-14T00:04:51.742Z,6.45
2018-03-14T00:05:51.654Z,6.35
2018-03-14T00:06:51.570Z,6.48
2018-03-14T00:07:51.490Z,6.48
2018-03-14T00:08:51.408Z,6.51
2018-03-14T00:09:51.324Z,6.46
2018-03-14T00:10:51.241Z,6.36
2018-03-14T00:11:51.158Z,6.42
2018-03-14T00:12:51.076Z,6.41
2018-03-14T00:13:50.993Z,6.31
2018-03-14T00:14:50.908Z,6.49
2018-03-14T00:15:50.830Z,6.48
2018-03-14T00:16:50.745Z,6.51
2018-03-14T00:17:50.663Z,6.49
2018-03-14T00:18:50.580Z,6.45
2018-03-14T00:19:50.498Z,6.54
2018-03-14T00:20:50.417Z,6.46
2018-03-14T00:21:50.334Z,6.48
2018-03-14T00:22:50.251Z,6.46
2018-03-14T00:23:50.167Z,6.51
2018-03-14T00:24:50.086Z,6.54
2018-03-14T00:25:50.005Z,6.62
2018-03-14T00:26:49.922Z,6.54
2018-03-14T00:27:49.838Z,6.57
2018-03-14T00:28:49.755Z,6.62
2018-03-14T00:29:49.673Z,6.62
2018-03-14T00:30:49.589Z,6.63
2018-03-14T00:31:49.506Z,6.64
2018-03-14T00:32:49.426Z,6.56
2018-03-14T00:33:49.342Z,6.56
2018-03-14T00:34:49.432Z,6.63
2018-03-14T00:35:49.178Z,6.60
2018-03-14T00:36:49.095Z,6.67
2018-03-14T00:37:49.013Z,6.51
2018-03-14T00:38:48.928Z,6.49
2018-03-14T00:39:48.849Z,6.48
2018-03-14T00:40:48.765Z,6.49
2018-03-14T00:41:48.684Z,6.48
2018-03-14T00:42:48.602Z,6.49
2018-03-14T00:43:48.517Z,6.49
2018-03-14T00:44:48.436Z,6.48
2018-03-14T00:45:48.354Z,6.45
2018-03-14T00:46:48.270Z,6.51
2018-03-14T00:47:48.189Z,6.51
2018-03-14T00:48:48.106Z,6.49
2018-03-14T00:49:48.029Z,6.60
2018-03-14T00:50:47.945Z,6.52
2018-03-14T00:51:47.859Z,6.49
2018-03-14T00:52:47.782Z,6.48
2018-03-14T00:53:47.694Z,6.52
2018-03-14T00:54:47.609Z,6.49
2018-03-14T00:55:47.531Z,6.51
2018-03-14T00:56:47.448Z,6.54
2018-03-14T00:57:47.365Z,6.41
2018-03-14T00:58:47.284Z,6.44
2018-03-14T00:59:47.198Z,6.57
2018-03-14T01:00:47.122Z,6.48
2018-03-14T01:01:47.035Z,6.41
2018-03-14T01:02:46.951Z,6.48
2018-03-14T01:03:49.048Z,6.52
2018-03-14T01:04:46.788Z,6.52
2018-03-14T01:05:46.705Z,6.44
2018-03-14T01:06:46.621Z,6.45
2018-03-14T01:07:46.540Z,6.49
2018-03-14T01:08:46.455Z,6.51
2018-03-14T01:09:46.374Z,6.30
2018-03-14T01:10:46.289Z,6.31
2018-03-14T01:11:46.210Z,6.30
2018-03-14T01:12:46.147Z,6.39
2018-03-14T01:13:46.047Z,6.33
2018-03-14T01:14:45.965Z,6.26
2018-03-14T01:15:45.880Z,6.22
2018-03-14T01:16:45.799Z,6.33
2018-03-14T01:17:45.718Z,6.28
2018-03-14T01:18:45.630Z,6.20
2018-03-14T01:19:45.549Z,6.22
2018-03-14T01:20:45.470Z,6.19
2018-03-14T01:21:45.384Z,6.22
2018-03-14T01:22:45.300Z,6.24
2018-03-14T01:23:45.218Z,6.28
2018-03-14T01:24:45.138Z,6.30
2018-03-14T01:25:45.054Z,6.19
2018-03-14T01:26:44.970Z,6.24
2018-03-14T01:27:44.889Z,6.19
2018-03-14T01:28:44.809Z,6.14
2018-03-14T01:29:44.722Z,6.22
2018-03-14T01:30:44.640Z,6.33
2018-03-14T01:31:44.560Z,6.14
2018-03-14T01:32:44.480Z,6.24
2018-03-14T01:33:44.394Z,6.26
2018-03-14T01:34:44.310Z,6.28
2018-03-14T01:35:44.227Z,6.19
2018-03-14T01:36:44.159Z,6.14
2018-03-14T01:37:44.064Z,6.33
2018-03-14T01:38:43.981Z,6.27
2018-03-14T01:39:43.898Z,6.17
2018-03-14T01:40:43.814Z,6.30
2018-03-14T01:41:43.732Z,6.27
2018-03-14T01:42:43.647Z,6.24
2018-03-14T01:43:43.564Z,6.28
2018-03-14T01:44:43.484Z,6.27
2018-03-14T01:45:43.400Z,6.08
2018-03-14T01:46:43.318Z,6.26
2018-03-14T01:47:43.239Z,6.17
2018-03-14T01:48:43.150Z,6.26
2018-03-14T01:49:43.076Z,6.22
2018-03-14T01:50:42.986Z,6.20
2018-03-14T01:51:42.903Z,6.17
2018-03-14T01:52:42.821Z,6.20
2018-03-14T01:53:42.739Z,6.22
2018-03-14T01:54:42.656Z,6.14
2018-03-14T01:55:42.577Z,6.17
2018-03-14T01:56:42.494Z,6.20
2018-03-14T01:57:42.410Z,6.17
2018-03-14T01:58:42.327Z,6.30
2018-03-14T01:59:42.243Z,6.27
2018-03-14T02:00:42.160Z,6.19
2018-03-14T02:01:42.080Z,6.17
2018-03-14T02:02:41.995Z,6.22
2018-03-14T02:03:41.914Z,6.17
2018-03-14T02:04:41.830Z,6.30
2018-03-14T02:05:41.751Z,6.19
2018-03-14T02:06:41.663Z,6.22
2018-03-14T02:07:41.581Z,6.22
2018-03-14T02:08:41.507Z,6.27
2018-03-14T02:09:41.418Z,6.20
2018-03-14T02:10:41.333Z,6.30
2018-03-14T02:11:41.249Z,6.20
2018-03-14T02:12:41.168Z,6.19
2018-03-14T02:13:41.095Z,6.26
2018-03-14T02:14:41.001Z,6.26
2018-03-14T02:15:40.920Z,6.05
2018-03-14T02:16:40.841Z,6.05
2018-03-14T02:17:40.754Z,6.16
2018-03-14T02:18:43.336Z,6.11
2018-03-14T02:19:40.609Z,6.12
2018-03-14T02:20:40.503Z,6.11
2018-03-14T02:21:40.424Z,6.09
2018-03-14T02:22:40.480Z,6.11
2018-03-14T02:23:40.258Z,6.11
2018-03-14T02:24:40.174Z,6.11
2018-03-14T02:25:40.091Z,6.17
2018-03-14T02:26:40.009Z,6.11
2018-03-14T02:27:39.932Z,6.19
2018-03-14T02:28:39.849Z,6.14
2018-03-14T02:29:39.762Z,6.16
2018-03-14T02:30:39.677Z,6.08
2018-03-14T02:31:39.592Z,6.16
2018-03-14T02:32:39.513Z,6.04
2018-03-14T02:33:39.430Z,6.11
2018-03-14T02:34:39.350Z,6.04
2018-03-14T02:35:39.264Z,6.05
2018-03-14T02:36:39.183Z,6.09
2018-03-14T02:37:39.104Z,6.14
2018-03-14T02:38:39.017Z,6.08
2018-03-14T02:39:38.932Z,6.07
2018-03-14T02:40:38.847Z,6.02
2018-03-14T02:41:38.765Z,6.07
2018-03-14T02:42:38.684Z,6.02
2018-03-14T02:43:38.602Z,6.04
2018-03-14T02:44:38.518Z,6.12
2018-03-14T02:45:38.441Z,6.12
2018-03-14T02:46:38.352Z,6.12
2018-03-14T02:47:38.271Z,5.99
2018-03-14T02:48:38.189Z,6.11
2018-03-14T02:49:38.104Z,6.08
2018-03-14T02:50:38.019Z,6.04
2018-03-14T02:51:37.956Z,5.97
2018-03-14T02:52:37.855Z,5.97
2018-03-14T02:53:37.781Z,6.05
2018-03-14T02:54:37.690Z,5.97
2018-03-14T02:55:37.607Z,5.94
2018-03-14T02:56:37.523Z,5.94
2018-03-14T02:57:37.442Z,6.05
2018-03-14T02:58:37.379Z,6.01
2018-03-14T02:59:37.274Z,5.94
2018-03-14T03:00:37.195Z,6.01
2018-03-14T03:01:37.111Z,6.05
2018-03-14T03:02:37.026Z,5.93
2018-03-14T03:03:36.945Z,5.97
2018-03-14T03:04:36.860Z,5.99
2018-03-14T03:05:36.779Z,5.93
2018-03-14T03:06:36.716Z,6.01
2018-03-14T03:07:36.611Z,6.07
2018-03-14T03:08:36.530Z,5.98
2018-03-14T03:09:36.452Z,5.98
2018-03-14T03:10:36.364Z,6.02
2018-03-14T03:11:36.279Z,6.04
2018-03-14T03:12:36.198Z,5.99
2018-03-14T03:13:36.116Z,6.01
2018-03-14T03:14:36.031Z,5.94
2018-03-14T03:15:35.950Z,5.93
2018-03-14T03:16:35.870Z,6.04
2018-03-14T03:17:35.788Z,5.99
2018-03-14T03:18:35.702Z,6.02
2018-03-14T03:19:35.620Z,5.99
2018-03-14T03:20:35.536Z,5.94
2018-03-14T03:21:35.453Z,5.91
2018-03-14T03:22:35.372Z,5.97
2018-03-14T03:23:35.287Z,5.99
2018-03-14T03:24:35.203Z,5.93
2018-03-14T03:25:35.126Z,5.94
2018-03-14T03:26:35.039Z,5.98
2018-03-14T03:27:34.955Z,5.98
2018-03-14T03:28:34.872Z,5.98
2018-03-14T03:29:34.794Z,5.94
2018-03-14T03:30:34.705Z,5.93
2018-03-14T03:31:34.626Z,5.93
2018-03-14T03:32:34.564Z,6.01
2018-03-14T03:33:34.456Z,5.91
2018-03-14T03:34:34.400Z,5.94
2018-03-14T03:35:34.291Z,5.93
2018-03-14T03:36:34.210Z,5.94
2018-03-14T03:37:34.126Z,6.01
2018-03-14T03:38:34.050Z,5.91
2018-03-14T03:39:33.961Z,5.86
2018-03-14T03:40:33.877Z,5.87
2018-03-14T03:41:33.794Z,5.83
2018-03-14T03:42:33.718Z,5.90
2018-03-14T03:43:33.643Z,5.90
2018-03-14T03:44:33.543Z,5.91
2018-03-14T03:45:33.464Z,5.84
2018-03-14T03:46:33.380Z,5.82
2018-03-14T03:47:33.300Z,5.79
2018-03-14T03:48:33.224Z,5.86
2018-03-14T03:49:33.130Z,5.80
2018-03-14T03:50:33.049Z,5.73
2018-03-14T03:51:32.966Z,5.82
2018-03-14T03:52:32.885Z,5.82
2018-03-14T03:53:32.798Z,5.86
2018-03-14T03:54:32.717Z,5.86
2018-03-14T03:55:32.634Z,5.79
2018-03-14T03:56:32.549Z,5.80
2018-03-14T03:57:32.468Z,5.87
2018-03-14T03:58:32.383Z,5.84
2018-03-14T03:59:32.301Z,5.87
2018-03-14T04:00:32.215Z,5.90
2018-03-14T04:01:32.135Z,5.89
2018-03-14T04:02:32.055Z,5.84
2018-03-14T04:03:31.968Z,5.86
2018-03-14T04:04:31.888Z,5.82
2018-03-14T04:05:31.803Z,5.73
2018-03-14T04:06:31.719Z,5.73
2018-03-14T04:07:31.640Z,5.73
2018-03-14T04:08:31.553Z,5.72
2018-03-14T04:09:31.472Z,5.75
2018-03-14T04:10:31.388Z,5.71
2018-03-14T04:11:31.304Z,5.79
2018-03-14T04:12:31.224Z,5.65
2018-03-14T04:13:31.148Z,5.79
2018-03-14T04:14:31.053Z,5.68
2018-03-14T04:15:30.971Z,5.65
2018-03-14T04:16:30.889Z,5.66
2018-03-14T04:17:30.806Z,5.66
2018-03-14T04:18:30.720Z,5.69
2018-03-14T04:19:30.638Z,5.75
2018-03-14T04:20:30.554Z,5.73
2018-03-14T04:21:30.472Z,5.68
2018-03-14T04:22:30.389Z,5.73
2018-03-14T04:23:30.312Z,5.62
2018-03-14T04:24:30.225Z,5.64
2018-03-14T04:25:30.144Z,5.66
2018-03-14T04:26:30.057Z,5.69
2018-03-14T04:27:29.975Z,5.65
2018-03-14T04:28:29.890Z,5.64
2018-03-14T04:29:29.821Z,5.61
2018-03-14T04:30:29.725Z,5.62
2018-03-14T04:31:29.656Z,5.62
2018-03-14T04:32:29.583Z,5.73
2018-03-14T04:33:29.475Z,5.71
2018-03-14T04:34:29.392Z,5.65
2018-03-14T04:35:29.310Z,5.71
2018-03-14T04:36:29.227Z,5.62
2018-03-14T04:37:29.146Z,5.72
2018-03-14T04:38:29.059Z,5.69
2018-03-14T04:39:28.986Z,5.73
2018-03-14T04:40:28.894Z,5.75
2018-03-14T04:41:28.810Z,5.68
2018-03-14T04:42:28.728Z,5.73
2018-03-14T04:43:28.644Z,5.62
2018-03-14T04:44:28.574Z,5.66
2018-03-14T04:45:28.481Z,5.69
2018-03-14T04:46:28.393Z,5.73
2018-03-14T04:47:28.326Z,5.66
2018-03-14T04:48:28.231Z,5.66
2018-03-14T04:49:28.147Z,5.72
2018-03-14T04:50:28.063Z,5.69
2018-03-14T04:51:27.984Z,5.68
2018-03-14T04:52:27.899Z,5.71
2018-03-14T04:53:27.813Z,5.76
2018-03-14T04:54:27.732Z,5.72
2018-03-14T04:55:27.649Z,5.69
2018-03-14T04:56:27.568Z,5.66
2018-03-14T04:57:27.482Z,5.76
2018-03-14T04:58:27.397Z,5.65
2018-03-14T04:59:27.317Z,5.54
2018-03-14T05:00:27.232Z,5.61
2018-03-14T05:01:27.150Z,5.71
2018-03-14T05:02:27.066Z,5.73
2018-03-14T05:03:26.981Z,5.61
2018-03-14T05:04:26.933Z,5.68
2018-03-14T05:05:26.816Z,5.59
2018-03-14T05:06:26.736Z,5.59
2018-03-14T05:07:26.666Z,5.51
2018-03-14T05:08:26.568Z,5.59
2018-03-14T05:09:26.484Z,5.62
2018-03-14T05:10:26.404Z,5.59
2018-03-14T05:11:26.318Z,5.61
2018-03-14T05:12:26.233Z,5.65
2018-03-14T05:13:26.154Z,5.56
2018-03-14T05:14:26.068Z,5.62
2018-03-14T05:15:25.986Z,5.71
2018-03-14T05:16:25.902Z,5.66
2018-03-14T05:17:25.824Z,5.56
2018-03-14T05:18:25.734Z,5.65
2018-03-14T05:19:25.706Z,5.61
2018-03-14T05:20:25.569Z,5.62
2018-03-14T05:21:25.487Z,5.54
2018-03-14T05:22:25.402Z,5.54
2018-03-14T05:23:25.318Z,5.65
2018-03-14T05:24:25.268Z,5.57
2018-03-14T05:25:25.160Z,5.71
2018-03-14T05:26:25.070Z,5.51
2018-03-14T05:27:25.006Z,5.64
2018-03-14T05:28:24.905Z,5.68
2018-03-14T05:29:24.824Z,5.54
2018-03-14T05:30:24.754Z,5.62
2018-03-14T05:31:24.658Z,5.65
2018-03-14T05:32:24.573Z,5.59
2018-03-14T05:33:24.488Z,5.57
2018-03-14T05:34:24.406Z,5.62
2018-03-14T05:35:24.322Z,5.65
2018-03-14T05:36:24.240Z,5.59
2018-03-14T05:37:24.157Z,5.54
2018-03-14T05:38:24.083Z,5.59
2018-03-14T05:39:23.991Z,5.59
2018-03-14T05:40:23.908Z,5.51
2018-03-14T05:41:23.824Z,5.61
2018-03-14T05:42:23.741Z,5.62
2018-03-14T05:43:23.658Z,5.56
2018-03-14T05:44:23.584Z,5.62
2018-03-14T05:45:23.493Z,5.66
2018-03-14T05:46:23.407Z,5.68
2018-03-14T05:47:23.328Z,5.68
2018-03-14T05:48:23.245Z,5.75
2018-03-14T05:49:23.163Z,5.75
2018-03-14T05:50:23.078Z,5.72
2018-03-14T05:51:22.993Z,5.71
2018-03-14T05:52:22.913Z,5.76
2018-03-14T05:53:22.829Z,5.79
2018-03-14T05:54:22.744Z,5.72
2018-03-14T05:55:22.664Z,5.76
2018-03-14T05:56:22.579Z,5.84
2018-03-14T05:57:22.500Z,5.79
2018-03-14T05:58:22.413Z,5.83
2018-03-14T05:59:22.331Z,5.82
2018-03-14T06:00:22.249Z,5.73
2018-03-14T06:01:22.164Z,5.76
2018-03-14T06:02:22.078Z,5.72
2018-03-14T06:03:21.999Z,5.76
2018-03-14T06:04:21.916Z,5.79
2018-03-14T06:05:21.892Z,5.82
2018-03-14T06:06:21.749Z,5.84
2018-03-14T06:07:21.667Z,5.73
2018-03-14T06:08:21.582Z,5.83
2018-03-14T06:09:21.500Z,5.76
2018-03-14T06:10:21.425Z,5.84
2018-03-14T06:11:21.340Z,5.83
2018-03-14T06:12:21.254Z,5.83
2018-03-14T06:13:21.170Z,5.87
2018-03-14T06:14:21.088Z,5.80
2018-03-14T06:15:21.003Z,5.89
2018-03-14T06:16:20.935Z,5.87
2018-03-14T06:17:20.837Z,5.87
2018-03-14T06:18:20.774Z,5.87
2018-03-14T06:19:20.677Z,5.90
2018-03-14T06:20:20.589Z,5.86
2018-03-14T06:21:20.508Z,5.94
2018-03-14T06:22:20.424Z,5.87
2018-03-14T06:23:20.342Z,5.89
2018-03-14T06:24:20.259Z,5.83
2018-03-14T06:25:20.187Z,5.82
2018-03-14T06:26:20.093Z,5.83
2018-03-14T06:27:20.007Z,5.86
2018-03-14T06:28:19.926Z,5.87
2018-03-14T06:29:19.844Z,5.84
2018-03-14T06:30:19.760Z,5.86
2018-03-14T06:31:19.678Z,5.87
2018-03-14T06:32:19.597Z,5.84
2018-03-14T06:33:19.513Z,5.82
2018-03-14T06:34:19.438Z,5.90
2018-03-14T06:35:19.345Z,5.91
2018-03-14T06:36:19.266Z,5.94
2018-03-14T06:37:19.182Z,5.90
2018-03-14T06:38:19.100Z,5.99
2018-03-14T06:39:19.014Z,5.93
2018-03-14T06:40:18.932Z,5.93
2018-03-14T06:41:18.850Z,5.93
2018-03-14T06:42:18.787Z,6.11
2018-03-14T06:43:18.688Z,6.09
2018-03-14T06:44:18.600Z,6.11
2018-03-14T06:45:18.517Z,6.04
2018-03-14T06:46:18.436Z,6.01
2018-03-14T06:47:18.352Z,6.01
2018-03-14T06:48:18.273Z,6.17
2018-03-14T06:49:18.189Z,6.05
2018-03-14T06:50:18.105Z,6.11
2018-03-14T06:51:18.022Z,6.08
2018-03-14T06:52:17.941Z,6.11
2018-03-14T06:53:17.859Z,6.08
2018-03-14T06:54:17.774Z,6.01
2018-03-14T06:55:17.689Z,6.01
2018-03-14T06:56:17.608Z,6.04
2018-03-14T06:57:17.532Z,5.94
2018-03-14T06:58:17.444Z,6.02
2018-03-14T06:59:17.360Z,6.14
2018-03-14T07:00:17.280Z,6.01
2018-03-14T07:01:17.196Z,6.12
2018-03-14T07:02:17.114Z,6.08
2018-03-14T07:03:17.037Z,6.05
2018-03-14T07:04:16.949Z,5.97
2018-03-14T07:05:16.932Z,5.98
2018-03-14T07:06:16.791Z,6.01
2018-03-14T07:07:16.699Z,6.12
2018-03-14T07:08:16.618Z,5.98
2018-03-14T07:09:16.582Z,5.98
2018-03-14T07:10:16.478Z,5.97
2018-03-14T07:11:16.373Z,6.04
2018-03-14T07:12:16.287Z,6.11
2018-03-14T07:13:16.269Z,6.12
2018-03-14T07:14:16.122Z,6.09
2018-03-14T07:15:16.038Z,6.05
2018-03-14T07:16:15.956Z,6.05
2018-03-14T07:17:15.873Z,6.08
2018-03-14T07:18:15.789Z,6.22
2018-03-14T07:19:15.708Z,6.16
2018-03-14T07:20:15.628Z,6.16
2018-03-14T07:21:15.545Z,6.11
2018-03-14T07:22:15.460Z,6.11
2018-03-14T07:23:15.376Z,6.07
2018-03-14T07:24:15.296Z,6.09
2018-03-14T07:25:15.219Z,6.08
2018-03-14T07:26:15.131Z,6.04
2018-03-14T07:27:15.047Z,6.08
2018-03-14T07:28:14.966Z,6.14
2018-03-14T07:29:14.910Z,6.02
2018-03-14T07:30:14.805Z,6.09
2018-03-14T07:31:14.718Z,6.11
2018-03-14T07:32:14.644Z,5.94
2018-03-14T07:33:14.552Z,6.05
2018-03-14T07:34:14.470Z,6.09
2018-03-14T07:35:14.387Z,6.09
2018-03-14T07:36:14.303Z,6.17
2018-03-14T07:37:14.224Z,6.16
2018-03-14T07:38:14.138Z,6.11
2018-03-14T07:39:14.054Z,6.12
2018-03-14T07:40:13.976Z,6.20
2018-03-14T07:41:13.891Z,6.19
2018-03-14T07:42:13.829Z,6.11
2018-03-14T07:43:13.723Z,6.16
2018-03-14T07:44:13.643Z,6.11
2018-03-14T07:45:13.560Z,6.08
2018-03-14T07:46:13.478Z,6.14
2018-03-14T07:47:13.394Z,6.12
2018-03-14T07:48:13.839Z,6.17
2018-03-14T07:49:13.229Z,6.17
2018-03-14T07:50:13.145Z,6.16
2018-03-14T07:51:13.063Z,6.22
2018-03-14T07:52:12.982Z,6.19
2018-03-14T07:53:12.900Z,6.20
2018-03-14T07:54:12.816Z,6.27
2018-03-14T07:55:12.733Z,6.20
2018-03-14T07:56:12.650Z,6.20
2018-03-14T07:57:12.568Z,6.20
2018-03-14T07:58:12.486Z,6.17
2018-03-14T07:59:12.407Z,6.20
2018-03-14T08:00:12.324Z,6.28
2018-03-14T08:01:12.246Z,6.28
2018-03-14T08:02:12.155Z,6.22
2018-03-14T08:03:12.073Z,6.33
2018-03-14T08:04:11.990Z,6.33
2018-03-14T08:05:11.908Z,6.33
2018-03-14T08:06:11.824Z,6.42
2018-03-14T08:07:11.742Z,6.49
2018-03-14T08:08:11.685Z,6.45
2018-03-14T08:09:11.579Z,6.60
2018-03-14T08:10:11.495Z,6.64
2018-03-14T08:11:11.414Z,6.60
2018-03-14T08:12:11.331Z,6.67
2018-03-14T08:13:11.250Z,6.69
2018-03-14T08:14:11.173Z,6.69
2018-03-14T08:15:11.082Z,6.72
2018-03-14T08:16:11.022Z,6.72
2018-03-14T08:17:10.921Z,6.67
2018-03-14T08:18:10.838Z,6.60
2018-03-14T08:19:10.755Z,6.66
2018-03-14T08:20:10.674Z,6.66
2018-03-14T08:21:10.591Z,6.62
2018-03-14T08:22:10.510Z,6.56
2018-03-14T08:23:10.425Z,6.56
2018-03-14T08:24:10.345Z,6.59
2018-03-14T08:25:10.267Z,6.63
2018-03-14T08:26:10.181Z,6.70
2018-03-14T08:27:10.098Z,6.64
2018-03-14T08:28:10.018Z,6.74
2018-03-14T08:29:09.936Z,6.74
2018-03-14T08:30:09.853Z,6.67
2018-03-14T08:31:09.769Z,6.69
2018-03-14T08:32:09.695Z,6.69
2018-03-14T08:33:09.618Z,6.79
2018-03-14T08:34:09.524Z,6.70
2018-03-14T08:35:09.440Z,6.75
2018-03-14T08:36:09.383Z,6.72
2018-03-14T08:37:09.284Z,6.74
2018-03-14T08:38:09.195Z,6.85
2018-03-14T08:39:09.127Z,6.88
2018-03-14T08:40:09.036Z,6.85
2018-03-14T08:41:08.955Z,6.95
2018-03-14T08:42:08.871Z,6.99
2018-03-14T08:43:08.794Z,6.99
2018-03-14T08:44:08.706Z,7.00
2018-03-14T08:45:08.623Z,6.97
2018-03-14T08:46:08.540Z,6.89
2018-03-14T08:47:08.461Z,6.92
2018-03-14T08:48:08.458Z,6.95
2018-03-14T08:49:08.298Z,6.93
2018-03-14T08:50:08.277Z,6.82
2018-03-14T08:51:08.132Z,6.88
2018-03-14T08:52:08.055Z,6.84
2018-03-14T08:53:07.970Z,6.81
2018-03-14T08:54:07.893Z,6.77
2018-03-14T08:55:07.868Z,6.72
2018-03-14T08:56:07.732Z,6.77
2018-03-14T08:57:07.689Z,6.74
2018-03-14T08:58:07.562Z,6.69
2018-03-14T08:59:07.479Z,6.78
2018-03-14T09:00:07.399Z,6.77
2018-03-14T09:01:07.317Z,6.67
2018-03-14T09:02:07.235Z,6.69
2018-03-14T09:03:07.151Z,6.74
2018-03-14T09:04:07.093Z,6.77
2018-03-14T09:05:06.991Z,6.70
2018-03-14T09:06:06.906Z,6.70
2018-03-14T09:07:06.882Z,6.78
2018-03-14T09:08:06.743Z,6.79
2018-03-14T09:09:06.661Z,6.74
2018-03-14T09:10:06.581Z,6.82
2018-03-14T09:11:06.524Z,6.88
2018-03-14T09:12:06.418Z,6.79
2018-03-14T09:13:06.333Z,6.92
2018-03-14T09:14:06.252Z,6.81
2018-03-14T09:15:06.170Z,6.84
2018-03-14T09:16:06.087Z,6.88
2018-03-14T09:17:06.008Z,6.92
2018-03-14T09:18:05.922Z,6.92
2018-03-14T09:19:05.841Z,6.84
2018-03-14T09:20:05.763Z,6.87
2018-03-14T09:21:05.680Z,6.74
2018-03-14T09:22:05.596Z,6.79
2018-03-14T09:23:05.512Z,6.72
2018-03-14T09:24:05.431Z,6.77
2018-03-14T09:25:05.351Z,6.77
2018-03-14T09:26:05.273Z,6.84
2018-03-14T09:27:05.187Z,6.87
2018-03-14T09:28:05.105Z,6.95
2018-03-14T09:29:05.021Z,6.96
2018-03-14T09:30:04.942Z,6.96
2018-03-14T09:31:04.856Z,6.99
2018-03-14T09:32:04.776Z,7.05
2018-03-14T09:33:04.695Z,6.99
2018-03-14T09:34:04.613Z,6.99
2018-03-14T09:35:04.545Z,7.02
2018-03-14T09:36:04.450Z,7.05
2018-03-14T09:37:04.368Z,7.02
2018-03-14T09:38:04.286Z,7.00
2018-03-14T09:39:04.212Z,7.02
2018-03-14T09:40:04.124Z,6.99
2018-03-14T09:41:04.043Z,7.02
2018-03-14T09:42:03.961Z,7.07
2018-03-14T09:43:03.878Z,7.05
2018-03-14T09:44:03.797Z,7.03
2018-03-14T09:45:03.716Z,7.05
2018-03-14T09:46:03.646Z,6.84
2018-03-14T09:47:03.555Z,6.85
2018-03-14T09:48:03.469Z,6.85
2018-03-14T09:49:03.391Z,6.85
2018-03-14T09:50:03.307Z,6.84
2018-03-14T09:51:03.227Z,6.89
2018-03-14T09:52:03.142Z,6.92
2018-03-14T09:53:03.060Z,6.82
2018-03-14T09:54:02.982Z,6.89
2018-03-14T09:55:02.899Z,6.85
2018-03-14T09:56:02.818Z,6.77
2018-03-14T09:57:02.738Z,6.79
2018-03-14T09:58:02.651Z,6.81
2018-03-14T09:59:02.570Z,6.88
2018-03-14T10:00:02.490Z,6.79
2018-03-14T10:01:02.417Z,6.82
2018-03-14T10:02:02.325Z,6.72
2018-03-14T10:03:02.244Z,6.78
2018-03-14T10:04:02.162Z,6.74
2018-03-14T10:05:02.081Z,6.78
2018-03-14T10:06:02.001Z,6.82
2018-03-14T10:07:01.917Z,6.84
2018-03-14T10:08:01.836Z,6.97
2018-03-14T10:09:01.757Z,7.00
2018-03-14T10:10:01.672Z,7.07
2018-03-14T10:11:01.591Z,7.03
2018-03-14T10:12:01.510Z,7.07
2018-03-14T10:13:01.429Z,7.23
2018-03-14T10:14:01.424Z,7.31
2018-03-14T10:15:01.264Z,7.28
2018-03-14T10:16:01.184Z,7.35
2018-03-14T10:17:01.102Z,7.36
2018-03-14T10:18:01.018Z,7.48
2018-03-14T10:19:00.936Z,7.54
2018-03-14T10:20:00.855Z,7.56
2018-03-14T10:21:00.776Z,7.51
2018-03-14T10:22:00.694Z,7.48
2018-03-14T10:23:00.613Z,7.47
2018-03-14T10:24:00.536Z,7.48
2018-03-14T10:25:00.452Z,7.39
2018-03-14T10:26:00.372Z,7.38
2018-03-14T10:27:00.288Z,7.32
2018-03-14T10:28:00.210Z,7.36
2018-03-14T10:29:00.128Z,7.36
2018-03-14T10:30:00.045Z,7.31
2018-03-14T10:30:59.966Z,7.33
2018-03-14T10:31:59.881Z,7.31
2018-03-14T10:32:59.809Z,7.32
2018-03-14T10:33:59.719Z,7.21
2018-03-14T10:34:59.638Z,7.20
2018-03-14T10:35:59.561Z,7.17
2018-03-14T10:36:59.481Z,7.15
2018-03-14T10:37:59.393Z,7.13
2018-03-14T10:38:59.312Z,7.03
2018-03-14T10:39:59.232Z,7.07
2018-03-14T10:40:59.149Z,7.10
2018-03-14T10:41:59.066Z,7.13
2018-03-14T10:42:58.985Z,7.05
2018-03-14T10:43:58.907Z,7.02
2018-03-14T10:44:58.824Z,7.03
2018-03-14T10:45:58.740Z,7.17
2018-03-14T10:46:58.664Z,7.15
2018-03-14T10:47:58.582Z,7.21
2018-03-14T10:48:58.501Z,7.24
2018-03-14T10:49:58.418Z,7.29
2018-03-14T10:50:58.336Z,7.32
2018-03-14T10:51:58.256Z,7.31
2018-03-14T10:52:58.172Z,7.32
2018-03-14T10:53:58.093Z,7.33
2018-03-14T10:54:58.014Z,7.28
2018-03-14T10:55:57.929Z,7.35
2018-03-14T10:56:57.848Z,7.20
2018-03-14T10:57:57.766Z,7.24
2018-03-14T10:58:57.684Z,7.29
2018-03-14T10:59:57.602Z,7.33
2018-03-14T11:00:57.524Z,7.32
2018-03-14T11:01:57.440Z,7.39
2018-03-14T11:02:57.360Z,7.33
2018-03-14T11:03:57.280Z,7.39
2018-03-14T11:04:57.196Z,7.38
2018-03-14T11:05:57.117Z,7.43
2018-03-14T11:06:57.036Z,7.53
2018-03-14T11:07:56.953Z,7.50
2018-03-14T11:08:56.876Z,7.54
2018-03-14T11:09:56.790Z,7.57
2018-03-14T11:10:56.727Z,7.56
2018-03-14T11:11:56.627Z,7.51
2018-03-14T11:12:56.552Z,7.61
2018-03-14T11:13:56.467Z,7.61
2018-03-14T11:14:56.388Z,7.63
2018-03-14T11:15:56.310Z,7.66
2018-03-14T11:16:56.225Z,7.95
2018-03-14T11:17:56.139Z,8.13
2018-03-14T11:18:56.061Z,8.31
2018-03-14T11:19:55.982Z,8.23
2018-03-14T11:20:55.898Z,8.44
2018-03-14T11:21:55.817Z,8.49
2018-03-14T11:22:55.738Z,8.61
2018-03-14T11:23:55.660Z,8.73
2018-03-14T11:24:55.576Z,8.81
2018-03-14T11:25:55.495Z,8.82
2018-03-14T11:26:55.414Z,8.79
2018-03-14T11:27:55.339Z,8.78
2018-03-14T11:28:55.258Z,8.70
2018-03-14T11:29:55.178Z,8.55
2018-03-14T11:30:55.096Z,8.44
2018-03-14T11:31:55.018Z,8.36
2018-03-14T11:32:54.936Z,8.36
2018-03-14T11:33:54.858Z,8.33
2018-03-14T11:34:54.776Z,8.10
2018-03-14T11:35:54.695Z,8.03
2018-03-14T11:36:54.621Z,7.95
2018-03-14T11:37:54.541Z,7.93
2018-03-14T11:38:54.457Z,7.98
2018-03-14T11:39:54.375Z,7.91
2018-03-14T11:40:54.300Z,7.83
2018-03-14T11:41:54.217Z,7.94
2018-03-14T11:42:54.138Z,7.97
2018-03-14T11:43:54.056Z,7.94
2018-03-14T11:44:53.976Z,7.90
2018-03-14T11:45:53.891Z,7.80
2018-03-14T11:46:53.815Z,7.93
2018-03-14T11:47:53.736Z,7.82
2018-03-14T11:48:53.654Z,7.82
2018-03-14T11:49:53.568Z,7.83
2018-03-14T11:50:53.489Z,7.73
2018-03-14T11:51:53.411Z,7.80
2018-03-14T11:52:53.330Z,7.82
2018-03-14T11:53:53.249Z,7.76
2018-03-14T11:54:53.165Z,7.79
2018-03-14T11:55:53.088Z,7.77
2018-03-14T11:56:53.071Z,7.82
2018-03-14T11:57:52.923Z,7.82
2018-03-14T11:58:52.881Z,7.85
2018-03-14T11:59:52.809Z,7.91
2018-03-14T12:00:52.682Z,7.88
2018-03-14T12:01:52.600Z,8.01
2018-03-14T12:02:52.522Z,7.94
2018-03-14T12:03:52.441Z,7.90
2018-03-14T12:04:52.383Z,7.95
2018-03-14T12:05:52.295Z,7.97
2018-03-14T12:06:52.196Z,7.95
2018-03-14T12:07:52.119Z,7.98
2018-03-14T12:08:52.035Z,8.01
2018-03-14T12:09:51.957Z,8.13
2018-03-14T12:10:51.874Z,8.06
2018-03-14T12:11:51.794Z,8.06
2018-03-14T12:12:51.712Z,8.18
2018-03-14T12:13:51.633Z,8.10
2018-03-14T12:14:51.732Z,8.12
2018-03-14T12:15:51.469Z,8.09
2018-03-14T12:16:51.393Z,8.20
2018-03-14T12:17:51.308Z,8.18
2018-03-14T12:18:51.228Z,8.33
2018-03-14T12:19:51.149Z,8.24
2018-03-14T12:20:51.122Z,8.26
2018-03-14T12:21:50.985Z,8.23
2018-03-14T12:22:50.905Z,8.24
2018-03-14T12:23:50.826Z,8.27
2018-03-14T12:24:50.747Z,8.20
2018-03-14T12:25:50.664Z,8.20
2018-03-14T12:26:50.586Z,8.24
2018-03-14T12:27:50.501Z,8.23
2018-03-14T12:28:50.421Z,8.23
2018-03-14T12:29:50.426Z,8.27
2018-03-14T12:30:50.281Z,8.30
2018-03-14T12:31:50.186Z,8.30
2018-03-14T12:32:50.172Z,8.24
2018-03-14T12:33:50.020Z,8.18
2018-03-14T12:34:49.937Z,8.23
2018-03-14T12:35:49.858Z,8.19
2018-03-14T12:36:49.776Z,8.15
2018-03-14T12:37:49.701Z,8.15
2018-03-14T12:38:49.614Z,8.13
2018-03-14T12:39:49.533Z,8.15
2018-03-14T12:40:49.454Z,8.18
2018-03-14T12:41:49.374Z,8.26
2018-03-14T12:42:49.292Z,8.26
2018-03-14T12:43:49.213Z,8.27
2018-03-14T12:44:49.133Z,8.26
2018-03-14T12:45:49.098Z,8.24
2018-03-14T12:46:48.969Z,8.28
2018-03-14T12:47:48.888Z,8.33
2018-03-14T12:48:48.812Z,8.26
2018-03-14T12:49:48.725Z,8.36
2018-03-14T12:50:48.649Z,8.34
2018-03-14T12:51:48.569Z,8.36
2018-03-14T12:52:48.485Z,8.36
2018-03-14T12:53:48.404Z,8.34
2018-03-14T12:54:48.427Z,8.44
2018-03-14T12:55:48.244Z,8.44
2018-03-14T12:56:48.163Z,8.33
2018-03-14T12:57:48.084Z,8.30
2018-03-14T12:58:48.011Z,8.41
2018-03-14T12:59:47.926Z,8.46
2018-03-14T13:00:47.866Z,8.53
2018-03-14T13:01:47.762Z,8.49
2018-03-14T13:02:47.757Z,8.51
2018-03-14T13:03:47.600Z,8.56
2018-03-14T13:04:47.523Z,8.63
2018-03-14T13:05:47.439Z,8.71
2018-03-14T13:06:47.366Z,8.70
2018-03-14T13:07:47.279Z,8.74
2018-03-14T13:08:47.198Z,8.70
2018-03-14T13:09:47.117Z,8.61
2018-03-14T13:10:47.039Z,8.66
2018-03-14T13:11:46.997Z,8.70
2018-03-14T13:12:46.878Z,8.74
2018-03-14T13:13:46.800Z,8.85
2018-03-14T13:14:46.718Z,8.91
2018-03-14T13:15:46.637Z,8.91
2018-03-14T13:16:46.728Z,9.06
2018-03-14T13:17:46.477Z,9.11